Terminal Aerodrome Forecast
Issued by NWS

Home | Current Version | Previous Version | Text Only | Print | Product List | Glossary On
Versions: 1 2 3 4 5 6 7 8 9 10 11 12 13 14 15 16 17 18 19 20 21 22 23 24 25 26 27 28 29 30 31 32 33 34 35 36 37 38 39 40 41 42 43 44
000
FTUS45 KBOI 200026 AAB
TAFBKE
TAF AMD
KBKE 200026Z 2000/2024 13006KT 1/2SM FZFG BKN003 OVC010
      TEMPO 2003/2006 13006KT 1/4SM FZFG OVC003
     FM201500 11014KT 3SM BR VCSH SCT015 OVC030
     FM202000 10014G24KT 2SM -SHSN SCT015 OVC025=

USA.gov is the U.S. government's official web portal to all federal, state and local government web resources and services.